Archival Weather

Chicago O'Hare International

Chicago, Illinois (KORD)

Report from: Tuesday, May 2, 2023 3:51 AM CDT
Current time: Sunday, February 25, 2024 3:23 PM CST

Current weather – Weather history – Daily summaries
Weather forecast

Temperature6.1°C (43.0°F)
Wind chill1.5°C (34.8°F)
Dew point-0.6°C (30.9°F)
Winds 16 kts (8.2 m/s, 18.4 mph) Northwest (320°)
Wind gusts 24 kts (12.3 m/s, 27.6 mph)
Peak wind 27 kts (13.9 m/s, 31.1 mph) Northwest (320°) at 07:54
Visibility10 mi. (16.1 km)
Clouds Scattered clouds 3,300 ft. (1,006 m)
Scattered clouds 11,000 ft. (3,353 m)
Ceiling: Broken clouds 25,000 ft. (7,620 m)
Altimeter29.53 in.Hg (1000 mB)
Relative humidity62 %
Density altitude-537 ft. (-164 m)
Sea-level pressure100.0 kPa (1000 mB, 29.54 in.Hg)
Remarks Automated weather observing station with precipitation discriminator
Pressure rising more quickly
Flight conditions Visual Meteorological Conditions
Raw dataKORD 020851Z 32016G24KT 10SM SCT033 SCT110 BKN250 06/M01 A2953 RMK AO2 PK WND 32027/0754 SLP002 T00611006 53003
An error has occurred. This application may no longer respond until reloaded. Reload 🗙